createdAt,value
2018-12-06T00:01:19.726Z,100.00
2018-12-06T00:03:49.058Z,100.00
2018-12-06T00:06:18.369Z,100.00
2018-12-06T00:08:47.661Z,100.00
2018-12-06T00:11:16.955Z,100.00
2018-12-06T00:13:46.329Z,100.00
2018-12-06T00:16:15.667Z,100.00
2018-12-06T00:22:09.564Z,100.00
2018-12-06T00:24:38.834Z,100.00
2018-12-06T00:27:08.105Z,100.00
2018-12-06T00:29:37.604Z,100.00
2018-12-06T00:32:06.966Z,100.00
2018-12-06T00:34:36.470Z,100.00
2018-12-06T00:37:05.809Z,100.00
2018-12-06T00:39:35.116Z,100.00
2018-12-06T00:42:04.386Z,100.00
2018-12-06T00:44:33.669Z,100.00
2018-12-06T00:47:03.009Z,100.00
2018-12-06T00:49:32.348Z,100.00
2018-12-06T00:52:01.632Z,100.00
2018-12-06T00:54:30.959Z,100.00
2018-12-06T00:57:00.263Z,100.00
2018-12-06T00:59:29.585Z,100.00
2018-12-06T01:01:58.865Z,100.00
2018-12-06T01:04:28.193Z,100.00
2018-12-06T01:06:57.468Z,100.00
2018-12-06T01:09:26.877Z,100.00
2018-12-06T01:11:56.251Z,100.00
2018-12-06T01:17:13.417Z,100.00
2018-12-06T01:19:42.711Z,100.00
2018-12-06T01:22:12.096Z,100.00
2018-12-06T01:24:41.410Z,100.00
2018-12-06T01:27:10.801Z,100.00
2018-12-06T01:29:40.301Z,100.00
2018-12-06T01:32:09.643Z,100.00
2018-12-06T01:34:39.038Z,100.00
2018-12-06T01:37:08.303Z,100.00
2018-12-06T01:39:37.633Z,100.00
2018-12-06T01:42:06.932Z,100.00
2018-12-06T01:44:36.232Z,100.00
2018-12-06T01:47:05.806Z,100.00
2018-12-06T01:49:35.168Z,100.00
2018-12-06T01:52:04.635Z,100.00
2018-12-06T01:54:34.023Z,100.00
2018-12-06T01:57:03.348Z,100.00
2018-12-06T01:59:32.824Z,100.00
2018-12-06T02:02:02.208Z,100.00
2018-12-06T02:04:31.523Z,100.00
2018-12-06T02:07:00.838Z,100.00
2018-12-06T02:09:30.159Z,100.00
2018-12-06T02:11:59.830Z,100.00
2018-12-06T02:14:29.161Z,100.00
2018-12-06T02:16:58.457Z,100.00
2018-12-06T02:19:27.860Z,100.00
2018-12-06T02:21:57.146Z,100.00
2018-12-06T02:24:33.295Z,100.00
2018-12-06T02:27:02.588Z,100.00
2018-12-06T02:29:37.299Z,100.00
2018-12-06T02:32:06.624Z,100.00
2018-12-06T02:34:35.936Z,100.00
2018-12-06T02:37:05.354Z,100.00
2018-12-06T02:39:34.695Z,100.00
2018-12-06T02:42:04.253Z,100.00
2018-12-06T02:44:33.670Z,100.00
2018-12-06T02:47:02.984Z,100.00
2018-12-06T02:49:32.351Z,100.00
2018-12-06T02:52:01.866Z,100.00
2018-12-06T02:54:31.298Z,100.00
2018-12-06T02:57:00.575Z,100.00
2018-12-06T02:59:29.921Z,100.00
2018-12-06T03:01:59.353Z,100.00
2018-12-06T03:04:28.706Z,100.00
2018-12-06T03:06:58.002Z,100.00
2018-12-06T03:09:27.316Z,100.00
2018-12-06T03:11:56.445Z,100.00
2018-12-06T03:14:25.918Z,100.00
2018-12-06T03:16:55.309Z,100.00
2018-12-06T03:19:24.612Z,100.00
2018-12-06T03:21:53.904Z,100.00
2018-12-06T03:24:23.295Z,100.00
2018-12-06T03:26:52.582Z,100.00
2018-12-06T03:29:22.093Z,100.00
2018-12-06T03:31:51.429Z,100.00
2018-12-06T03:34:20.854Z,100.00
2018-12-06T03:36:50.254Z,100.00
2018-12-06T03:39:19.574Z,100.00
2018-12-06T03:41:48.898Z,100.00
2018-12-06T03:44:18.176Z,100.00
2018-12-06T03:46:47.585Z,100.00
2018-12-06T03:49:16.921Z,100.00
2018-12-06T03:51:46.272Z,100.00
2018-12-06T03:54:15.595Z,100.00
2018-12-06T03:56:44.920Z,100.00
2018-12-06T03:59:14.392Z,100.00
2018-12-06T04:01:43.765Z,100.00
2018-12-06T04:04:13.108Z,100.00
2018-12-06T04:06:42.432Z,100.00
2018-12-06T04:09:11.730Z,100.00
2018-12-06T04:11:41.037Z,100.00
2018-12-06T04:14:10.428Z,100.00
2018-12-06T04:16:39.910Z,100.00
2018-12-06T04:19:09.191Z,100.00
2018-12-06T04:21:38.701Z,100.00
2018-12-06T04:24:07.972Z,100.00
2018-12-06T04:26:37.305Z,100.00
2018-12-06T04:29:06.653Z,100.00
2018-12-06T04:31:37.877Z,100.00
2018-12-06T04:34:07.256Z,100.00
2018-12-06T04:36:36.653Z,100.00
2018-12-06T04:39:08.795Z,100.00
2018-12-06T04:41:38.308Z,100.00
2018-12-06T04:44:07.684Z,100.00
2018-12-06T04:46:36.996Z,100.00
2018-12-06T04:49:06.317Z,100.00
2018-12-06T04:51:35.729Z,100.00
2018-12-06T04:54:05.129Z,100.00
2018-12-06T04:56:34.711Z,100.00
2018-12-06T04:59:04.114Z,100.00
2018-12-06T05:01:33.451Z,100.00
2018-12-06T05:04:02.722Z,100.00
2018-12-06T05:06:32.040Z,100.00
2018-12-06T05:09:01.484Z,100.00
2018-12-06T05:11:30.975Z,100.00
2018-12-06T05:14:00.332Z,100.00
2018-12-06T05:16:29.625Z,100.00
2018-12-06T05:18:58.921Z,100.00
2018-12-06T05:21:28.273Z,100.00
2018-12-06T05:23:57.556Z,100.00
2018-12-06T05:26:27.043Z,100.00
2018-12-06T05:28:56.451Z,100.00
2018-12-06T05:31:25.916Z,100.00
2018-12-06T05:33:55.217Z,100.00
2018-12-06T05:36:24.526Z,100.00
2018-12-06T05:38:53.828Z,100.00
2018-12-06T05:41:23.120Z,100.00
2018-12-06T05:43:52.156Z,100.00
2018-12-06T05:46:21.469Z,100.00
2018-12-06T05:48:50.753Z,100.00
2018-12-06T05:51:20.048Z,100.00
2018-12-06T05:53:49.427Z,100.00
2018-12-06T05:56:18.743Z,100.00
2018-12-06T05:58:48.038Z,100.00
2018-12-06T06:01:17.447Z,100.00
2018-12-06T06:03:46.857Z,100.00
2018-12-06T06:06:16.157Z,100.00
2018-12-06T06:08:45.481Z,100.00
2018-12-06T06:11:17.178Z,100.00
2018-12-06T06:13:46.398Z,100.00
2018-12-06T06:16:15.709Z,100.00
2018-12-06T06:18:45.200Z,100.00
2018-12-06T06:21:14.536Z,100.00
2018-12-06T06:23:43.803Z,100.00
2018-12-06T06:26:13.436Z,100.00
2018-12-06T06:28:42.705Z,100.00
2018-12-06T06:31:12.120Z,100.00
2018-12-06T06:33:41.446Z,100.00
2018-12-06T06:36:10.788Z,100.00
2018-12-06T06:38:40.145Z,100.00
2018-12-06T06:41:09.631Z,100.00
2018-12-06T06:43:39.050Z,100.00
2018-12-06T06:46:08.363Z,100.00
2018-12-06T06:48:37.672Z,100.00
2018-12-06T06:51:06.995Z,100.00
2018-12-06T06:53:36.295Z,100.00
2018-12-06T06:56:05.601Z,100.00
2018-12-06T06:58:35.122Z,100.00
2018-12-06T07:01:04.502Z,100.00
2018-12-06T07:03:33.787Z,100.00
2018-12-06T07:06:03.141Z,100.00
2018-12-06T07:08:32.487Z,100.00
2018-12-06T07:11:01.913Z,100.00
2018-12-06T07:13:31.225Z,100.00
2018-12-06T07:16:00.621Z,100.00
2018-12-06T07:18:30.044Z,100.00
2018-12-06T07:20:59.482Z,100.00
2018-12-06T07:23:28.888Z,100.00
2018-12-06T07:25:58.227Z,100.00
2018-12-06T07:28:27.577Z,100.00
2018-12-06T07:30:57.027Z,100.00
2018-12-06T07:33:26.331Z,100.00
2018-12-06T07:35:55.788Z,100.00
2018-12-06T07:38:25.205Z,100.00
2018-12-06T07:40:54.658Z,100.00
2018-12-06T07:43:23.930Z,100.00
2018-12-06T07:45:57.494Z,100.00
2018-12-06T07:48:26.816Z,100.00
2018-12-06T07:50:56.163Z,100.00
2018-12-06T07:53:25.470Z,100.00
2018-12-06T07:55:54.793Z,100.00
2018-12-06T07:58:24.684Z,100.00
2018-12-06T08:00:54.003Z,100.00
2018-12-06T08:03:23.312Z,100.00
2018-12-06T08:05:52.721Z,100.00
2018-12-06T08:08:22.092Z,100.00
2018-12-06T08:10:51.429Z,100.00
2018-12-06T08:13:20.745Z,100.00
2018-12-06T08:15:50.103Z,100.00
2018-12-06T08:18:19.781Z,100.00
2018-12-06T08:20:49.126Z,100.00
2018-12-06T08:23:18.466Z,100.00
2018-12-06T08:25:47.784Z,100.00
2018-12-06T08:28:17.092Z,100.00
2018-12-06T08:30:46.460Z,100.00
2018-12-06T08:33:15.797Z,100.00
2018-12-06T08:35:45.194Z,100.00
2018-12-06T08:38:14.584Z,100.00
2018-12-06T08:40:43.987Z,100.00
2018-12-06T08:43:13.370Z,100.00
2018-12-06T08:45:42.694Z,100.00
2018-12-06T08:48:12.023Z,100.00
2018-12-06T08:50:41.304Z,100.00
2018-12-06T08:53:10.670Z,100.00
2018-12-06T08:55:40.031Z,100.00
2018-12-06T08:58:09.382Z,100.00
2018-12-06T09:00:38.906Z,100.00
2018-12-06T09:03:08.213Z,100.00
2018-12-06T09:05:37.521Z,100.00
2018-12-06T09:08:06.925Z,100.00
2018-12-06T09:10:36.311Z,100.00
2018-12-06T09:13:05.573Z,100.00
2018-12-06T09:15:34.980Z,100.00
2018-12-06T09:18:04.400Z,100.00
2018-12-06T09:20:33.924Z,100.00
2018-12-06T09:23:03.397Z,100.00
2018-12-06T09:25:32.682Z,100.00
2018-12-06T09:28:02.011Z,100.00
2018-12-06T09:30:31.425Z,100.00
2018-12-06T09:33:00.779Z,100.00
2018-12-06T09:35:30.090Z,99.97
2018-12-06T09:37:59.456Z,100.00
2018-12-06T09:40:29.156Z,100.00
2018-12-06T09:42:58.579Z,99.50
2018-12-06T09:45:27.988Z,98.84
2018-12-06T09:47:57.434Z,98.99
2018-12-06T09:50:27.201Z,98.25
2018-12-06T09:52:56.536Z,97.76
2018-12-06T09:55:25.870Z,97.55
2018-12-06T09:57:55.240Z,97.86
2018-12-06T10:00:24.805Z,98.47
2018-12-06T10:02:54.162Z,96.83
2018-12-06T10:05:23.465Z,97.45
2018-12-06T10:07:52.810Z,97.84
2018-12-06T10:10:22.170Z,96.90
2018-12-06T10:12:51.508Z,97.53
2018-12-06T10:15:20.992Z,97.12
2018-12-06T10:17:50.310Z,95.83
2018-12-06T10:20:19.587Z,96.41
2018-12-06T10:22:48.923Z,96.86
2018-12-06T10:25:18.330Z,96.76
2018-12-06T10:27:47.662Z,97.03
2018-12-06T10:30:16.957Z,96.29
2018-12-06T10:32:46.291Z,98.01
2018-12-06T10:35:15.639Z,98.00
2018-12-06T10:37:44.952Z,98.67
2018-12-06T10:40:14.389Z,99.83
2018-12-06T10:42:43.676Z,99.93
2018-12-06T10:45:14.321Z,99.22
2018-12-06T10:47:43.608Z,98.88
2018-12-06T10:50:13.212Z,99.11
2018-12-06T10:52:42.519Z,99.57
2018-12-06T10:55:11.960Z,98.80
2018-12-06T10:57:41.324Z,99.50
2018-12-06T11:01:18.555Z,99.47
2018-12-06T11:03:53.236Z,97.52
2018-12-06T11:06:22.596Z,98.37
2018-12-06T11:08:51.940Z,98.14
2018-12-06T11:11:21.298Z,98.19
2018-12-06T11:13:50.616Z,96.87
2018-12-06T11:16:20.028Z,95.26
2018-12-06T11:18:49.921Z,95.60
2018-12-06T11:21:19.273Z,95.63
2018-12-06T11:23:48.706Z,96.47
2018-12-06T11:26:18.113Z,94.69
2018-12-06T11:28:47.446Z,94.29
2018-12-06T11:31:16.749Z,94.92
2018-12-06T11:33:46.185Z,95.13
2018-12-06T11:36:15.621Z,95.03
2018-12-06T11:38:44.876Z,95.93
2018-12-06T11:41:14.154Z,95.64
2018-12-06T11:43:43.511Z,94.27
2018-12-06T11:46:12.833Z,94.77
2018-12-06T11:48:42.188Z,94.89
2018-12-06T11:51:11.426Z,95.19
2018-12-06T11:53:40.895Z,96.18
2018-12-06T11:56:10.322Z,95.75
2018-12-06T11:58:39.609Z,95.83
2018-12-06T12:01:08.942Z,95.60
2018-12-06T12:03:38.242Z,94.31
2018-12-06T12:06:07.568Z,94.76
2018-12-06T12:08:36.864Z,94.46
2018-12-06T12:11:06.273Z,94.34
2018-12-06T12:13:35.603Z,95.21
2018-12-06T12:16:05.028Z,95.13
2018-12-06T12:18:34.322Z,94.50
2018-12-06T12:21:03.705Z,95.37
2018-12-06T12:23:32.985Z,93.98
2018-12-06T12:26:02.293Z,93.66
2018-12-06T12:28:31.706Z,92.98
2018-12-06T12:31:01.019Z,91.29
2018-12-06T12:33:30.289Z,90.25
2018-12-06T12:35:59.571Z,90.14
2018-12-06T12:38:28.852Z,89.06
2018-12-06T12:40:58.392Z,89.14
2018-12-06T12:43:27.736Z,89.08
2018-12-06T12:45:57.044Z,88.85
2018-12-06T12:48:26.364Z,88.50
2018-12-06T12:50:55.661Z,88.64
2018-12-06T12:56:05.991Z,87.74
2018-12-06T12:58:35.247Z,88.25
2018-12-06T13:01:04.619Z,88.19
2018-12-06T13:03:33.970Z,88.51
2018-12-06T13:06:03.349Z,89.23
2018-12-06T13:08:32.964Z,88.41
2018-12-06T13:11:02.416Z,87.08
2018-12-06T13:13:31.974Z,87.79
2018-12-06T13:16:01.497Z,88.06
2018-12-06T13:18:30.869Z,87.73
2018-12-06T13:21:00.203Z,88.04
2018-12-06T13:23:29.569Z,87.20
2018-12-06T13:25:58.940Z,85.93
2018-12-06T13:28:28.243Z,86.32
2018-12-06T13:30:57.646Z,86.32
2018-12-06T13:33:27.072Z,86.51
2018-12-06T13:35:56.365Z,86.13
2018-12-06T13:38:25.777Z,85.42
2018-12-06T13:40:55.327Z,85.31
2018-12-06T13:43:24.787Z,86.11
2018-12-06T13:45:54.077Z,86.91
2018-12-06T13:48:23.633Z,86.94
2018-12-06T13:50:52.932Z,86.85
2018-12-06T13:53:22.212Z,87.52
2018-12-06T13:55:51.267Z,87.94
2018-12-06T13:58:20.601Z,87.18
2018-12-06T14:00:50.153Z,87.62
2018-12-06T14:03:20.519Z,88.29
2018-12-06T14:05:49.941Z,87.71
2018-12-06T14:08:19.354Z,87.49
2018-12-06T14:10:48.739Z,88.12
2018-12-06T14:13:23.639Z,87.82
2018-12-06T14:15:49.283Z,88.29
2018-12-06T14:18:18.980Z,88.92
2018-12-06T14:20:48.298Z,88.70
2018-12-06T14:23:17.655Z,88.26
2018-12-06T14:25:49.877Z,88.28
2018-12-06T14:28:19.174Z,88.01
2018-12-06T14:30:49.653Z,88.20
2018-12-06T14:33:18.995Z,88.01
2018-12-06T14:35:50.406Z,87.74
2018-12-06T14:38:19.749Z,88.11
2018-12-06T14:40:49.438Z,88.39
2018-12-06T14:43:18.934Z,88.92
2018-12-06T14:45:48.429Z,89.34
2018-12-06T14:48:19.453Z,88.81
2018-12-06T14:50:50.840Z,88.76
2018-12-06T14:53:20.433Z,89.24
2018-12-06T14:55:49.748Z,90.04
2018-12-06T14:58:19.054Z,90.29
2018-12-06T15:00:48.429Z,90.87
2018-12-06T15:03:17.724Z,91.58
2018-12-06T15:05:47.198Z,92.08
2018-12-06T15:08:16.545Z,91.47
2018-12-06T15:10:45.963Z,92.61
2018-12-06T15:13:15.362Z,93.04
2018-12-06T15:15:44.634Z,94.39
2018-12-06T15:18:15.351Z,94.42
2018-12-06T15:20:44.740Z,94.30
2018-12-06T15:23:14.086Z,93.94
2018-12-06T15:25:43.152Z,94.55
2018-12-06T15:28:13.057Z,95.16
2018-12-06T15:30:44.169Z,94.56
2018-12-06T15:33:13.445Z,95.19
2018-12-06T15:35:44.110Z,95.56
2018-12-06T15:38:14.547Z,96.00
2018-12-06T15:40:43.945Z,96.38
2018-12-06T15:43:13.248Z,96.59
2018-12-06T15:45:42.585Z,96.42
2018-12-06T15:48:11.895Z,95.88
2018-12-06T15:50:41.835Z,96.05
2018-12-06T15:53:11.803Z,96.22
2018-12-06T15:55:41.444Z,96.98
2018-12-06T15:58:10.996Z,96.01
2018-12-06T16:00:41.899Z,96.57
2018-12-06T16:03:11.416Z,96.61
2018-12-06T16:05:41.020Z,96.14
2018-12-06T16:08:10.695Z,95.73
2018-12-06T16:10:41.098Z,95.28
2018-12-06T16:13:11.273Z,95.83
2018-12-06T16:15:40.750Z,96.35
2018-12-06T16:18:10.049Z,95.64
2018-12-06T16:20:39.368Z,95.33
2018-12-06T16:23:08.676Z,95.44
2018-12-06T16:25:37.995Z,95.91
2018-12-06T16:28:07.407Z,96.38
2018-12-06T16:30:36.805Z,96.33
2018-12-06T16:33:06.092Z,96.25
2018-12-06T16:35:35.392Z,96.78
2018-12-06T16:38:04.664Z,96.01
2018-12-06T16:40:33.991Z,97.18
2018-12-06T16:43:03.351Z,98.50
2018-12-06T16:45:32.660Z,98.82
2018-12-06T16:48:01.953Z,99.79
2018-12-06T16:50:31.356Z,100.00
2018-12-06T16:53:00.656Z,100.00
2018-12-06T16:55:30.081Z,100.00
2018-12-06T16:57:59.380Z,100.00
2018-12-06T17:00:28.948Z,100.00
2018-12-06T17:02:58.296Z,100.00
2018-12-06T17:05:27.575Z,99.23
2018-12-06T17:07:57.015Z,99.10
2018-12-06T17:10:26.559Z,99.38
2018-12-06T17:12:55.776Z,98.97
2018-12-06T17:15:25.075Z,98.98
2018-12-06T17:17:54.428Z,98.76
2018-12-06T17:20:23.745Z,98.51
2018-12-06T17:22:53.033Z,98.01
2018-12-06T17:25:22.451Z,96.85
2018-12-06T17:27:51.760Z,97.15
2018-12-06T17:30:21.086Z,96.95
2018-12-06T17:32:50.449Z,96.11
2018-12-06T17:35:19.827Z,95.90
2018-12-06T17:37:49.242Z,95.95
2018-12-06T17:40:18.564Z,95.20
2018-12-06T17:42:47.943Z,95.02
2018-12-06T17:45:17.540Z,94.57
2018-12-06T17:47:46.957Z,94.46
2018-12-06T17:50:16.371Z,93.76
2018-12-06T17:52:45.776Z,94.76
2018-12-06T17:55:15.054Z,94.98
2018-12-06T17:57:44.365Z,95.29
2018-12-06T18:00:13.869Z,94.74
2018-12-06T18:02:43.174Z,94.96
2018-12-06T18:05:12.444Z,95.49
2018-12-06T18:07:41.771Z,95.18
2018-12-06T18:10:12.048Z,94.71
2018-12-06T18:12:41.413Z,94.74
2018-12-06T18:15:11.456Z,94.36
2018-12-06T18:17:40.789Z,93.57
2018-12-06T18:20:12.844Z,93.63
2018-12-06T18:22:45.307Z,94.03
2018-12-06T18:25:18.816Z,94.91
2018-12-06T18:27:48.252Z,94.62
2018-12-06T18:30:17.656Z,93.25
2018-12-06T18:32:46.969Z,93.46
2018-12-06T18:35:16.267Z,94.46
2018-12-06T18:37:45.684Z,94.30
2018-12-06T18:40:14.987Z,94.92
2018-12-06T18:42:44.306Z,94.80
2018-12-06T18:45:13.698Z,95.31
2018-12-06T18:47:43.066Z,95.82
2018-12-06T18:50:12.460Z,96.36
2018-12-06T18:52:41.878Z,95.78
2018-12-06T18:55:11.421Z,96.11
2018-12-06T18:57:40.850Z,95.21
2018-12-06T19:00:11.936Z,95.78
2018-12-06T19:02:41.453Z,95.96
2018-12-06T19:05:11.070Z,95.73
2018-12-06T19:07:40.365Z,94.99
2018-12-06T19:10:09.810Z,94.60
2018-12-06T19:12:39.194Z,94.19
2018-12-06T19:15:08.784Z,94.19
2018-12-06T19:17:38.208Z,93.69
2018-12-06T19:20:07.814Z,94.25
2018-12-06T19:22:37.212Z,93.54
2018-12-06T19:25:06.711Z,93.80
2018-12-06T19:27:36.003Z,93.89
2018-12-06T19:30:07.916Z,94.82
2018-12-06T19:32:37.327Z,94.70
2018-12-06T19:35:07.086Z,95.11
2018-12-06T19:37:42.880Z,94.63
2018-12-06T19:40:12.450Z,94.58
2018-12-06T19:42:41.934Z,93.88
2018-12-06T19:45:14.737Z,94.27
2018-12-06T19:47:44.281Z,94.56
2018-12-06T19:50:13.803Z,94.93
2018-12-06T19:52:43.190Z,95.71
2018-12-06T19:55:12.548Z,96.28
2018-12-06T19:57:42.343Z,96.12
2018-12-06T20:00:11.981Z,96.67
2018-12-06T20:02:42.172Z,96.50
2018-12-06T20:05:11.767Z,95.97
2018-12-06T20:07:41.598Z,96.37
2018-12-06T20:10:12.215Z,95.78
2018-12-06T20:12:41.633Z,95.97
2018-12-06T20:15:11.541Z,96.06
2018-12-06T20:17:41.661Z,96.29
2018-12-06T20:20:11.132Z,96.12
2018-12-06T20:22:40.517Z,96.62
2018-12-06T20:25:10.234Z,96.29
2018-12-06T20:27:39.605Z,96.34
2018-12-06T20:30:09.324Z,96.36
2018-12-06T20:32:38.643Z,96.47
2018-12-06T20:35:07.982Z,96.29
2018-12-06T20:37:38.367Z,95.86
2018-12-06T20:40:07.978Z,95.08
2018-12-06T20:42:37.409Z,94.92
2018-12-06T20:45:07.253Z,95.67
2018-12-06T20:47:36.595Z,95.64
2018-12-06T20:50:07.143Z,96.12
2018-12-06T20:52:37.544Z,96.36
2018-12-06T20:55:08.513Z,96.35
2018-12-06T20:57:38.022Z,96.78
2018-12-06T21:00:08.060Z,96.21
2018-12-06T21:02:37.330Z,95.48
2018-12-06T21:05:07.058Z,95.57
2018-12-06T21:07:36.525Z,95.30
2018-12-06T21:10:06.636Z,95.51
2018-12-06T21:12:35.959Z,95.11
2018-12-06T21:15:06.525Z,95.45
2018-12-06T21:17:36.309Z,95.25
2018-12-06T21:20:07.502Z,95.22
2018-12-06T21:22:36.813Z,95.96
2018-12-06T21:25:08.388Z,96.45
2018-12-06T21:27:39.945Z,96.17
2018-12-06T21:30:09.794Z,96.16
2018-12-06T21:32:39.128Z,96.10
2018-12-06T21:35:08.865Z,96.34
2018-12-06T21:37:38.188Z,96.01
2018-12-06T21:40:08.053Z,96.33
2018-12-06T21:42:37.336Z,96.19
2018-12-06T21:45:07.186Z,95.66
2018-12-06T21:47:36.486Z,95.27
2018-12-06T21:50:08.476Z,94.86
2018-12-06T21:52:37.927Z,95.43
2018-12-06T21:55:07.589Z,95.23
2018-12-06T21:57:37.009Z,95.54
2018-12-06T22:00:07.754Z,96.09
2018-12-06T22:02:37.116Z,95.78
2018-12-06T22:05:07.188Z,95.52
2018-12-06T22:07:36.492Z,95.87
2018-12-06T22:10:07.431Z,96.41
2018-12-06T22:12:36.809Z,96.34
2018-12-06T22:15:06.508Z,96.21
2018-12-06T22:17:35.858Z,96.04
2018-12-06T22:20:06.041Z,95.29
2018-12-06T22:22:35.561Z,95.26
2018-12-06T22:25:05.410Z,95.33
2018-12-06T22:27:34.807Z,95.76
2018-12-06T22:30:04.707Z,95.63
2018-12-06T22:32:34.187Z,95.36
2018-12-06T22:35:03.632Z,95.40
2018-12-06T22:37:32.976Z,95.37
2018-12-06T22:40:02.373Z,94.91
2018-12-06T22:42:31.713Z,95.14
2018-12-06T22:45:18.051Z,95.73
2018-12-06T22:47:47.085Z,95.58
2018-12-06T22:50:16.716Z,94.65
2018-12-06T22:52:46.252Z,95.56
2018-12-06T22:55:15.664Z,95.54
2018-12-06T22:57:45.108Z,95.68
2018-12-06T23:00:16.753Z,95.75
2018-12-06T23:02:46.072Z,95.87
2018-12-06T23:05:15.513Z,95.81
2018-12-06T23:07:51.679Z,95.48
2018-12-06T23:10:21.292Z,95.13
2018-12-06T23:12:50.716Z,95.68
2018-12-06T23:15:20.207Z,95.30
2018-12-06T23:17:49.486Z,95.34
2018-12-06T23:20:18.934Z,95.91
2018-12-06T23:22:48.274Z,95.83
2018-12-06T23:25:17.663Z,96.04
2018-12-06T23:27:47.116Z,95.91
2018-12-06T23:30:16.572Z,96.41
2018-12-06T23:32:45.917Z,96.38
2018-12-06T23:35:15.314Z,96.74
2018-12-06T23:37:44.652Z,97.30
2018-12-06T23:40:14.081Z,96.94
2018-12-06T23:42:43.393Z,97.23
2018-12-06T23:45:12.890Z,96.83
2018-12-06T23:47:42.215Z,97.01
2018-12-06T23:50:11.678Z,97.48
2018-12-06T23:52:41.010Z,97.76
2018-12-06T23:55:10.355Z,97.86
2018-12-06T23:57:39.679Z,98.25
